sensor_id;sensor_type;location;lat;lon;timestamp;P1;durP1;ratioP1;P2;durP2;ratioP2
12880;SDS011;6508;53.786;9.996;2023-12-22T00:01:42;18.10;;;5.65;;
12880;SDS011;6508;53.786;9.996;2023-12-22T00:04:10;15.52;;;5.68;;
12880;SDS011;6508;53.786;9.996;2023-12-22T00:06:40;15.63;;;5.97;;
12880;SDS011;6508;53.786;9.996;2023-12-22T00:09:09;10.57;;;5.38;;
12880;SDS011;6508;53.786;9.996;2023-12-22T00:11:36;14.02;;;5.47;;
12880;SDS011;6508;53.786;9.996;2023-12-22T00:14:04;10.88;;;4.85;;
12880;SDS011;6508;53.786;9.996;2023-12-22T00:16:32;15.88;;;6.00;;
12880;SDS011;6508;53.786;9.996;2023-12-22T00:18:59;9.48;;;5.45;;
12880;SDS011;6508;53.786;9.996;2023-12-22T00:21:27;12.30;;;4.85;;
12880;SDS011;6508;53.786;9.996;2023-12-22T00:23:55;12.18;;;5.35;;
12880;SDS011;6508;53.786;9.996;2023-12-22T00:26:25;9.68;;;5.47;;
12880;SDS011;6508;53.786;9.996;2023-12-22T00:28:52;12.77;;;5.72;;
12880;SDS011;6508;53.786;9.996;2023-12-22T00:31:20;10.50;;;4.70;;
12880;SDS011;6508;53.786;9.996;2023-12-22T00:33:48;12.52;;;4.78;;
12880;SDS011;6508;53.786;9.996;2023-12-22T00:36:16;14.35;;;5.00;;
12880;SDS011;6508;53.786;9.996;2023-12-22T00:38:45;13.90;;;5.18;;
12880;SDS011;6508;53.786;9.996;2023-12-22T00:41:13;18.33;;;5.78;;
12880;SDS011;6508;53.786;9.996;2023-12-22T00:43:42;18.67;;;5.45;;
12880;SDS011;6508;53.786;9.996;2023-12-22T00:46:09;10.63;;;5.00;;
12880;SDS011;6508;53.786;9.996;2023-12-22T00:48:37;14.45;;;5.40;;
12880;SDS011;6508;53.786;9.996;2023-12-22T00:51:05;14.85;;;5.40;;
12880;SDS011;6508;53.786;9.996;2023-12-22T00:53:33;22.25;;;6.80;;
12880;SDS011;6508;53.786;9.996;2023-12-22T00:56:00;17.13;;;5.75;;
12880;SDS011;6508;53.786;9.996;2023-12-22T00:58:29;13.75;;;5.72;;
12880;SDS011;6508;53.786;9.996;2023-12-22T01:00:58;14.32;;;5.70;;
12880;SDS011;6508;53.786;9.996;2023-12-22T01:03:25;21.33;;;6.75;;
12880;SDS011;6508;53.786;9.996;2023-12-22T01:05:53;12.35;;;5.75;;
12880;SDS011;6508;53.786;9.996;2023-12-22T01:08:21;16.15;;;5.63;;
12880;SDS011;6508;53.786;9.996;2023-12-22T01:10:49;14.70;;;6.75;;
12880;SDS011;6508;53.786;9.996;2023-12-22T01:13:17;13.55;;;6.00;;
12880;SDS011;6508;53.786;9.996;2023-12-22T01:15:45;13.60;;;5.97;;
12880;SDS011;6508;53.786;9.996;2023-12-22T01:18:14;12.27;;;6.30;;
12880;SDS011;6508;53.786;9.996;2023-12-22T01:20:42;16.70;;;5.90;;
12880;SDS011;6508;53.786;9.996;2023-12-22T01:23:09;18.70;;;6.53;;
12880;SDS011;6508;53.786;9.996;2023-12-22T01:25:37;13.32;;;5.93;;
12880;SDS011;6508;53.786;9.996;2023-12-22T01:28:05;11.52;;;5.65;;
12880;SDS011;6508;53.786;9.996;2023-12-22T01:30:32;21.35;;;9.25;;
12880;SDS011;6508;53.786;9.996;2023-12-22T01:33:00;17.33;;;8.95;;
12880;SDS011;6508;53.786;9.996;2023-12-22T01:35:29;13.23;;;7.95;;
12880;SDS011;6508;53.786;9.996;2023-12-22T01:37:57;14.57;;;7.30;;
12880;SDS011;6508;53.786;9.996;2023-12-22T01:40:25;16.20;;;7.80;;
12880;SDS011;6508;53.786;9.996;2023-12-22T01:42:53;10.95;;;6.53;;
12880;SDS011;6508;53.786;9.996;2023-12-22T01:45:21;7.30;;;5.57;;
12880;SDS011;6508;53.786;9.996;2023-12-22T01:47:48;11.45;;;5.50;;
12880;SDS011;6508;53.786;9.996;2023-12-22T01:50:16;12.52;;;5.45;;
12880;SDS011;6508;53.786;9.996;2023-12-22T01:52:46;11.98;;;5.78;;
12880;SDS011;6508;53.786;9.996;2023-12-22T01:55:13;9.23;;;5.35;;
12880;SDS011;6508;53.786;9.996;2023-12-22T01:57:44;8.05;;;5.40;;
12880;SDS011;6508;53.786;9.996;2023-12-22T02:00:13;10.60;;;5.03;;
12880;SDS011;6508;53.786;9.996;2023-12-22T02:02:41;10.15;;;5.68;;
12880;SDS011;6508;53.786;9.996;2023-12-22T02:05:10;8.80;;;4.88;;
12880;SDS011;6508;53.786;9.996;2023-12-22T02:07:40;13.43;;;5.13;;
12880;SDS011;6508;53.786;9.996;2023-12-22T02:10:10;6.95;;;4.25;;
12880;SDS011;6508;53.786;9.996;2023-12-22T02:12:37;8.95;;;4.95;;
12880;SDS011;6508;53.786;9.996;2023-12-22T02:15:08;8.00;;;4.68;;
12880;SDS011;6508;53.786;9.996;2023-12-22T02:17:38;8.57;;;5.03;;
12880;SDS011;6508;53.786;9.996;2023-12-22T02:20:06;8.40;;;4.63;;
12880;SDS011;6508;53.786;9.996;2023-12-22T02:22:36;9.25;;;4.60;;
12880;SDS011;6508;53.786;9.996;2023-12-22T02:25:04;4.00;;;3.60;;
12880;SDS011;6508;53.786;9.996;2023-12-22T02:27:33;4.78;;;3.08;;
12880;SDS011;6508;53.786;9.996;2023-12-22T02:30:06;6.65;;;2.70;;
12880;SDS011;6508;53.786;9.996;2023-12-22T02:32:35;5.05;;;1.77;;
12880;SDS011;6508;53.786;9.996;2023-12-22T02:35:07;3.90;;;1.70;;
12880;SDS011;6508;53.786;9.996;2023-12-22T02:37:38;6.55;;;1.60;;
12880;SDS011;6508;53.786;9.996;2023-12-22T02:40:07;5.47;;;2.00;;
12880;SDS011;6508;53.786;9.996;2023-12-22T02:42:35;11.43;;;2.78;;
12880;SDS011;6508;53.786;9.996;2023-12-22T02:45:04;6.35;;;1.50;;
12880;SDS011;6508;53.786;9.996;2023-12-22T02:47:32;6.17;;;1.47;;
12880;SDS011;6508;53.786;9.996;2023-12-22T02:50:00;7.38;;;2.05;;
12880;SDS011;6508;53.786;9.996;2023-12-22T02:52:28;7.30;;;1.58;;
12880;SDS011;6508;53.786;9.996;2023-12-22T02:54:59;8.60;;;2.00;;
12880;SDS011;6508;53.786;9.996;2023-12-22T02:57:27;4.63;;;1.37;;
12880;SDS011;6508;53.786;9.996;2023-12-22T02:59:54;3.50;;;1.40;;
12880;SDS011;6508;53.786;9.996;2023-12-22T03:02:22;5.13;;;1.55;;
12880;SDS011;6508;53.786;9.996;2023-12-22T03:04:50;4.60;;;1.55;;
12880;SDS011;6508;53.786;9.996;2023-12-22T03:07:18;3.40;;;1.05;;
12880;SDS011;6508;53.786;9.996;2023-12-22T03:09:45;8.03;;;1.70;;
12880;SDS011;6508;53.786;9.996;2023-12-22T03:12:15;6.70;;;1.75;;
12880;SDS011;6508;53.786;9.996;2023-12-22T03:14:43;5.50;;;1.60;;
12880;SDS011;6508;53.786;9.996;2023-12-22T03:17:11;2.40;;;1.73;;
12880;SDS011;6508;53.786;9.996;2023-12-22T03:19:38;2.65;;;1.20;;
12880;SDS011;6508;53.786;9.996;2023-12-22T03:22:06;3.25;;;1.10;;
12880;SDS011;6508;53.786;9.996;2023-12-22T03:24:34;7.82;;;1.33;;
12880;SDS011;6508;53.786;9.996;2023-12-22T03:27:03;6.75;;;1.70;;
12880;SDS011;6508;53.786;9.996;2023-12-22T03:29:32;2.00;;;1.33;;
12880;SDS011;6508;53.786;9.996;2023-12-22T03:32:00;8.10;;;1.55;;
12880;SDS011;6508;53.786;9.996;2023-12-22T03:34:27;2.38;;;1.67;;
12880;SDS011;6508;53.786;9.996;2023-12-22T03:36:55;7.40;;;2.25;;
12880;SDS011;6508;53.786;9.996;2023-12-22T03:39:23;3.95;;;2.08;;
12880;SDS011;6508;53.786;9.996;2023-12-22T03:41:50;3.80;;;1.73;;
12880;SDS011;6508;53.786;9.996;2023-12-22T03:44:18;4.57;;;2.07;;
12880;SDS011;6508;53.786;9.996;2023-12-22T03:46:50;6.63;;;2.03;;
12880;SDS011;6508;53.786;9.996;2023-12-22T03:49:18;5.97;;;2.03;;
12880;SDS011;6508;53.786;9.996;2023-12-22T03:51:46;7.55;;;2.47;;
12880;SDS011;6508;53.786;9.996;2023-12-22T03:54:14;5.88;;;2.45;;
12880;SDS011;6508;53.786;9.996;2023-12-22T03:56:42;5.82;;;2.60;;
12880;SDS011;6508;53.786;9.996;2023-12-22T03:59:10;7.60;;;2.90;;
12880;SDS011;6508;53.786;9.996;2023-12-22T04:01:39;10.05;;;2.78;;
12880;SDS011;6508;53.786;9.996;2023-12-22T04:04:08;10.32;;;3.42;;
12880;SDS011;6508;53.786;9.996;2023-12-22T04:06:37;8.00;;;2.78;;
12880;SDS011;6508;53.786;9.996;2023-12-22T04:09:05;4.82;;;2.53;;
12880;SDS011;6508;53.786;9.996;2023-12-22T04:11:33;7.50;;;2.20;;
12880;SDS011;6508;53.786;9.996;2023-12-22T04:14:05;9.18;;;2.35;;
12880;SDS011;6508;53.786;9.996;2023-12-22T04:16:34;10.05;;;1.95;;
12880;SDS011;6508;53.786;9.996;2023-12-22T04:19:03;6.70;;;2.23;;
12880;SDS011;6508;53.786;9.996;2023-12-22T04:21:35;6.18;;;2.25;;
12880;SDS011;6508;53.786;9.996;2023-12-22T04:24:03;7.57;;;2.67;;
12880;SDS011;6508;53.786;9.996;2023-12-22T04:26:30;12.77;;;2.70;;
12880;SDS011;6508;53.786;9.996;2023-12-22T04:28:58;13.60;;;2.60;;
12880;SDS011;6508;53.786;9.996;2023-12-22T04:31:28;10.18;;;2.17;;
12880;SDS011;6508;53.786;9.996;2023-12-22T04:33:56;16.70;;;2.83;;
12880;SDS011;6508;53.786;9.996;2023-12-22T04:36:24;8.88;;;2.70;;
12880;SDS011;6508;53.786;9.996;2023-12-22T04:38:53;7.32;;;2.60;;
12880;SDS011;6508;53.786;9.996;2023-12-22T04:41:20;9.23;;;2.70;;
12880;SDS011;6508;53.786;9.996;2023-12-22T04:43:48;13.07;;;2.70;;
12880;SDS011;6508;53.786;9.996;2023-12-22T04:46:16;5.13;;;3.58;;
12880;SDS011;6508;53.786;9.996;2023-12-22T04:48:44;10.95;;;3.38;;
12880;SDS011;6508;53.786;9.996;2023-12-22T04:51:12;6.72;;;3.67;;
12880;SDS011;6508;53.786;9.996;2023-12-22T04:53:40;8.88;;;4.38;;
12880;SDS011;6508;53.786;9.996;2023-12-22T04:56:10;10.00;;;4.85;;
12880;SDS011;6508;53.786;9.996;2023-12-22T04:58:37;10.25;;;4.43;;
12880;SDS011;6508;53.786;9.996;2023-12-22T05:01:05;13.90;;;4.80;;
12880;SDS011;6508;53.786;9.996;2023-12-22T05:03:33;8.80;;;4.93;;
12880;SDS011;6508;53.786;9.996;2023-12-22T05:06:01;8.52;;;5.13;;
12880;SDS011;6508;53.786;9.996;2023-12-22T05:08:29;13.35;;;5.65;;
12880;SDS011;6508;53.786;9.996;2023-12-22T05:10:57;7.95;;;5.72;;
12880;SDS011;6508;53.786;9.996;2023-12-22T05:13:26;8.77;;;6.45;;
12880;SDS011;6508;53.786;9.996;2023-12-22T05:15:55;8.68;;;6.05;;
12880;SDS011;6508;53.786;9.996;2023-12-22T05:18:25;10.40;;;6.90;;
12880;SDS011;6508;53.786;9.996;2023-12-22T05:20:53;11.02;;;6.20;;
12880;SDS011;6508;53.786;9.996;2023-12-22T05:23:21;10.18;;;6.35;;
12880;SDS011;6508;53.786;9.996;2023-12-22T05:25:49;9.70;;;6.30;;
12880;SDS011;6508;53.786;9.996;2023-12-22T05:28:17;11.25;;;6.53;;
12880;SDS011;6508;53.786;9.996;2023-12-22T05:30:49;11.45;;;6.60;;
12880;SDS011;6508;53.786;9.996;2023-12-22T05:33:16;7.78;;;5.80;;
12880;SDS011;6508;53.786;9.996;2023-12-22T05:35:44;8.27;;;5.53;;
12880;SDS011;6508;53.786;9.996;2023-12-22T05:38:12;8.40;;;5.70;;
12880;SDS011;6508;53.786;9.996;2023-12-22T05:40:40;14.70;;;4.95;;
12880;SDS011;6508;53.786;9.996;2023-12-22T05:43:08;9.65;;;4.60;;
12880;SDS011;6508;53.786;9.996;2023-12-22T05:45:35;7.95;;;4.40;;
12880;SDS011;6508;53.786;9.996;2023-12-22T05:48:05;7.43;;;4.75;;
12880;SDS011;6508;53.786;9.996;2023-12-22T05:50:34;6.05;;;5.40;;
12880;SDS011;6508;53.786;9.996;2023-12-22T05:53:02;6.40;;;5.90;;
12880;SDS011;6508;53.786;9.996;2023-12-22T05:55:30;13.33;;;6.67;;
12880;SDS011;6508;53.786;9.996;2023-12-22T05:57:58;11.38;;;6.75;;
12880;SDS011;6508;53.786;9.996;2023-12-22T06:00:26;7.87;;;6.83;;
12880;SDS011;6508;53.786;9.996;2023-12-22T06:02:53;9.13;;;6.53;;
12880;SDS011;6508;53.786;9.996;2023-12-22T06:05:24;10.87;;;7.20;;
12880;SDS011;6508;53.786;9.996;2023-12-22T06:07:52;10.18;;;6.65;;
12880;SDS011;6508;53.786;9.996;2023-12-22T06:10:19;11.55;;;6.50;;
12880;SDS011;6508;53.786;9.996;2023-12-22T06:12:47;6.83;;;4.83;;
12880;SDS011;6508;53.786;9.996;2023-12-22T06:15:15;4.95;;;3.47;;
12880;SDS011;6508;53.786;9.996;2023-12-22T06:17:43;5.03;;;2.90;;
12880;SDS011;6508;53.786;9.996;2023-12-22T06:20:11;7.33;;;3.50;;
12880;SDS011;6508;53.786;9.996;2023-12-22T06:22:40;7.33;;;3.50;;
12880;SDS011;6508;53.786;9.996;2023-12-22T06:25:11;9.07;;;3.50;;
12880;SDS011;6508;53.786;9.996;2023-12-22T06:27:39;7.80;;;2.97;;
12880;SDS011;6508;53.786;9.996;2023-12-22T06:30:07;9.47;;;4.37;;
12880;SDS011;6508;53.786;9.996;2023-12-22T06:32:35;7.40;;;4.17;;
12880;SDS011;6508;53.786;9.996;2023-12-22T06:35:07;7.67;;;4.33;;
12880;SDS011;6508;53.786;9.996;2023-12-22T06:37:40;13.10;;;5.40;;
12880;SDS011;6508;53.786;9.996;2023-12-22T06:40:09;11.68;;;5.97;;
12880;SDS011;6508;53.786;9.996;2023-12-22T06:42:37;11.43;;;6.28;;
12880;SDS011;6508;53.786;9.996;2023-12-22T06:45:05;13.82;;;7.00;;
12880;SDS011;6508;53.786;9.996;2023-12-22T06:47:33;9.82;;;6.78;;
12880;SDS011;6508;53.786;9.996;2023-12-22T06:50:01;7.90;;;7.20;;
12880;SDS011;6508;53.786;9.996;2023-12-22T06:52:30;11.35;;;6.90;;
12880;SDS011;6508;53.786;9.996;2023-12-22T06:54:59;18.58;;;7.75;;
12880;SDS011;6508;53.786;9.996;2023-12-22T06:57:27;14.75;;;7.65;;
12880;SDS011;6508;53.786;9.996;2023-12-22T06:59:55;9.63;;;7.72;;
12880;SDS011;6508;53.786;9.996;2023-12-22T07:02:23;15.55;;;7.85;;
12880;SDS011;6508;53.786;9.996;2023-12-22T07:07:39;15.27;;;6.97;;
12880;SDS011;6508;53.786;9.996;2023-12-22T07:10:08;19.33;;;8.90;;
12880;SDS011;6508;53.786;9.996;2023-12-22T07:12:37;13.57;;;7.28;;
12880;SDS011;6508;53.786;9.996;2023-12-22T07:15:05;16.27;;;8.30;;
12880;SDS011;6508;53.786;9.996;2023-12-22T07:17:35;17.73;;;7.75;;
12880;SDS011;6508;53.786;9.996;2023-12-22T07:20:03;15.57;;;7.82;;
12880;SDS011;6508;53.786;9.996;2023-12-22T07:22:30;15.65;;;7.70;;
12880;SDS011;6508;53.786;9.996;2023-12-22T07:24:58;12.48;;;7.57;;
12880;SDS011;6508;53.786;9.996;2023-12-22T07:27:27;11.43;;;7.28;;
12880;SDS011;6508;53.786;9.996;2023-12-22T07:29:55;17.05;;;7.13;;
12880;SDS011;6508;53.786;9.996;2023-12-22T07:32:22;13.23;;;7.35;;
12880;SDS011;6508;53.786;9.996;2023-12-22T07:34:50;11.23;;;6.55;;
12880;SDS011;6508;53.786;9.996;2023-12-22T07:37:18;9.13;;;5.63;;
12880;SDS011;6508;53.786;9.996;2023-12-22T07:39:46;12.30;;;6.22;;
12880;SDS011;6508;53.786;9.996;2023-12-22T07:42:14;11.20;;;5.95;;
12880;SDS011;6508;53.786;9.996;2023-12-22T07:44:44;13.43;;;6.40;;
12880;SDS011;6508;53.786;9.996;2023-12-22T07:47:11;11.93;;;6.15;;
12880;SDS011;6508;53.786;9.996;2023-12-22T07:49:40;10.50;;;6.60;;
12880;SDS011;6508;53.786;9.996;2023-12-22T07:52:09;14.35;;;6.45;;
12880;SDS011;6508;53.786;9.996;2023-12-22T07:54:37;13.35;;;6.90;;
12880;SDS011;6508;53.786;9.996;2023-12-22T07:57:05;16.17;;;5.78;;
12880;SDS011;6508;53.786;9.996;2023-12-22T07:59:33;15.07;;;6.88;;
12880;SDS011;6508;53.786;9.996;2023-12-22T08:02:02;15.77;;;6.40;;
12880;SDS011;6508;53.786;9.996;2023-12-22T08:04:31;12.20;;;6.47;;
12880;SDS011;6508;53.786;9.996;2023-12-22T08:06:58;12.27;;;6.43;;
12880;SDS011;6508;53.786;9.996;2023-12-22T08:09:26;8.35;;;5.03;;
12880;SDS011;6508;53.786;9.996;2023-12-22T08:11:54;11.50;;;5.15;;
12880;SDS011;6508;53.786;9.996;2023-12-22T08:14:23;12.27;;;4.63;;
12880;SDS011;6508;53.786;9.996;2023-12-22T08:16:50;9.50;;;5.13;;
12880;SDS011;6508;53.786;9.996;2023-12-22T08:19:20;15.48;;;4.78;;
12880;SDS011;6508;53.786;9.996;2023-12-22T08:21:51;8.32;;;4.20;;
12880;SDS011;6508;53.786;9.996;2023-12-22T08:24:20;11.50;;;4.32;;
12880;SDS011;6508;53.786;9.996;2023-12-22T08:26:49;10.10;;;4.43;;
12880;SDS011;6508;53.786;9.996;2023-12-22T08:29:17;11.00;;;4.50;;
12880;SDS011;6508;53.786;9.996;2023-12-22T08:31:45;9.70;;;3.43;;
12880;SDS011;6508;53.786;9.996;2023-12-22T08:34:13;11.23;;;4.00;;
12880;SDS011;6508;53.786;9.996;2023-12-22T08:36:42;11.27;;;4.93;;
12880;SDS011;6508;53.786;9.996;2023-12-22T08:39:11;15.05;;;4.50;;
12880;SDS011;6508;53.786;9.996;2023-12-22T08:41:39;6.95;;;3.97;;
12880;SDS011;6508;53.786;9.996;2023-12-22T08:44:07;9.20;;;5.07;;
12880;SDS011;6508;53.786;9.996;2023-12-22T08:46:35;9.73;;;3.83;;
12880;SDS011;6508;53.786;9.996;2023-12-22T08:49:03;14.02;;;4.60;;
12880;SDS011;6508;53.786;9.996;2023-12-22T08:51:30;10.15;;;4.32;;
12880;SDS011;6508;53.786;9.996;2023-12-22T08:53:59;9.90;;;4.78;;
12880;SDS011;6508;53.786;9.996;2023-12-22T08:56:27;15.43;;;5.15;;
12880;SDS011;6508;53.786;9.996;2023-12-22T08:58:55;11.10;;;4.55;;
12880;SDS011;6508;53.786;9.996;2023-12-22T09:01:25;13.50;;;5.40;;
12880;SDS011;6508;53.786;9.996;2023-12-22T09:03:56;11.65;;;5.07;;
12880;SDS011;6508;53.786;9.996;2023-12-22T09:06:24;14.55;;;4.80;;
12880;SDS011;6508;53.786;9.996;2023-12-22T09:08:52;9.88;;;4.88;;
12880;SDS011;6508;53.786;9.996;2023-12-22T09:11:22;9.43;;;5.35;;
12880;SDS011;6508;53.786;9.996;2023-12-22T09:13:49;8.90;;;5.00;;
12880;SDS011;6508;53.786;9.996;2023-12-22T09:16:20;12.15;;;4.57;;
12880;SDS011;6508;53.786;9.996;2023-12-22T09:18:48;16.45;;;5.28;;
12880;SDS011;6508;53.786;9.996;2023-12-22T09:21:18;9.90;;;6.05;;
12880;SDS011;6508;53.786;9.996;2023-12-22T09:23:45;9.30;;;5.10;;
12880;SDS011;6508;53.786;9.996;2023-12-22T09:26:14;10.23;;;4.85;;
12880;SDS011;6508;53.786;9.996;2023-12-22T09:28:43;10.35;;;4.32;;
12880;SDS011;6508;53.786;9.996;2023-12-22T09:31:11;8.05;;;3.28;;
12880;SDS011;6508;53.786;9.996;2023-12-22T09:33:40;6.57;;;2.83;;
12880;SDS011;6508;53.786;9.996;2023-12-22T09:36:08;12.38;;;4.63;;
12880;SDS011;6508;53.786;9.996;2023-12-22T09:38:36;8.63;;;3.22;;
12880;SDS011;6508;53.786;9.996;2023-12-22T09:41:04;12.00;;;3.60;;
12880;SDS011;6508;53.786;9.996;2023-12-22T09:43:32;9.63;;;3.63;;
12880;SDS011;6508;53.786;9.996;2023-12-22T09:46:06;11.82;;;4.13;;
12880;SDS011;6508;53.786;9.996;2023-12-22T09:48:35;10.52;;;4.22;;
12880;SDS011;6508;53.786;9.996;2023-12-22T09:51:05;9.35;;;4.50;;
12880;SDS011;6508;53.786;9.996;2023-12-22T09:53:35;10.73;;;4.55;;
12880;SDS011;6508;53.786;9.996;2023-12-22T09:56:03;14.35;;;5.47;;
12880;SDS011;6508;53.786;9.996;2023-12-22T09:58:31;10.68;;;5.53;;
12880;SDS011;6508;53.786;9.996;2023-12-22T10:01:02;10.73;;;5.20;;
12880;SDS011;6508;53.786;9.996;2023-12-22T10:03:34;13.85;;;5.55;;
12880;SDS011;6508;53.786;9.996;2023-12-22T10:06:02;14.60;;;5.65;;
12880;SDS011;6508;53.786;9.996;2023-12-22T10:08:30;13.48;;;5.57;;
12880;SDS011;6508;53.786;9.996;2023-12-22T10:10:58;11.35;;;6.07;;
12880;SDS011;6508;53.786;9.996;2023-12-22T10:13:25;15.25;;;6.47;;
12880;SDS011;6508;53.786;9.996;2023-12-22T10:15:54;10.05;;;5.60;;
12880;SDS011;6508;53.786;9.996;2023-12-22T10:18:22;10.05;;;6.03;;
12880;SDS011;6508;53.786;9.996;2023-12-22T10:20:53;10.30;;;6.65;;
12880;SDS011;6508;53.786;9.996;2023-12-22T10:23:20;9.63;;;6.03;;
12880;SDS011;6508;53.786;9.996;2023-12-22T10:25:48;5.65;;;5.07;;
12880;SDS011;6508;53.786;9.996;2023-12-22T10:28:17;8.93;;;4.57;;
12880;SDS011;6508;53.786;9.996;2023-12-22T10:30:51;7.35;;;4.50;;
12880;SDS011;6508;53.786;9.996;2023-12-22T10:33:19;7.65;;;4.22;;
12880;SDS011;6508;53.786;9.996;2023-12-22T10:35:47;4.07;;;3.67;;
12880;SDS011;6508;53.786;9.996;2023-12-22T10:38:19;7.40;;;4.03;;
12880;SDS011;6508;53.786;9.996;2023-12-22T10:40:46;4.45;;;4.00;;
12880;SDS011;6508;53.786;9.996;2023-12-22T10:43:14;7.45;;;3.97;;
12880;SDS011;6508;53.786;9.996;2023-12-22T10:45:43;9.77;;;4.28;;
12880;SDS011;6508;53.786;9.996;2023-12-22T10:48:10;7.75;;;4.07;;
12880;SDS011;6508;53.786;9.996;2023-12-22T10:50:39;7.10;;;4.10;;
12880;SDS011;6508;53.786;9.996;2023-12-22T10:53:07;8.88;;;5.07;;
12880;SDS011;6508;53.786;9.996;2023-12-22T10:55:41;8.55;;;3.55;;
12880;SDS011;6508;53.786;9.996;2023-12-22T10:58:09;7.20;;;3.78;;
12880;SDS011;6508;53.786;9.996;2023-12-22T11:00:37;11.20;;;4.57;;
12880;SDS011;6508;53.786;9.996;2023-12-22T11:03:06;8.40;;;3.70;;
12880;SDS011;6508;53.786;9.996;2023-12-22T11:05:34;7.13;;;4.45;;
12880;SDS011;6508;53.786;9.996;2023-12-22T11:08:04;7.10;;;4.70;;
12880;SDS011;6508;53.786;9.996;2023-12-22T11:10:35;11.57;;;4.20;;
12880;SDS011;6508;53.786;9.996;2023-12-22T11:13:06;10.57;;;4.30;;
12880;SDS011;6508;53.786;9.996;2023-12-22T11:15:34;8.98;;;4.82;;
12880;SDS011;6508;53.786;9.996;2023-12-22T11:18:02;8.15;;;3.30;;
12880;SDS011;6508;53.786;9.996;2023-12-22T11:20:31;4.88;;;2.80;;
12880;SDS011;6508;53.786;9.996;2023-12-22T11:23:00;6.47;;;3.40;;
12880;SDS011;6508;53.786;9.996;2023-12-22T11:25:28;7.28;;;3.13;;
12880;SDS011;6508;53.786;9.996;2023-12-22T11:27:57;4.20;;;3.15;;
12880;SDS011;6508;53.786;9.996;2023-12-22T11:30:28;10.18;;;3.70;;
12880;SDS011;6508;53.786;9.996;2023-12-22T11:32:57;12.57;;;4.32;;
12880;SDS011;6508;53.786;9.996;2023-12-22T11:35:25;7.35;;;3.80;;
12880;SDS011;6508;53.786;9.996;2023-12-22T11:37:59;8.07;;;3.70;;
12880;SDS011;6508;53.786;9.996;2023-12-22T11:40:28;10.13;;;3.40;;
12880;SDS011;6508;53.786;9.996;2023-12-22T11:42:56;10.05;;;3.92;;
12880;SDS011;6508;53.786;9.996;2023-12-22T11:45:24;6.53;;;3.60;;
12880;SDS011;6508;53.786;9.996;2023-12-22T11:47:53;7.75;;;3.95;;
12880;SDS011;6508;53.786;9.996;2023-12-22T11:50:30;5.82;;;3.60;;
12880;SDS011;6508;53.786;9.996;2023-12-22T12:01:35;5.53;;;3.72;;
12880;SDS011;6508;53.786;9.996;2023-12-22T12:04:07;7.78;;;3.28;;
12880;SDS011;6508;53.786;9.996;2023-12-22T12:06:35;5.78;;;3.35;;
12880;SDS011;6508;53.786;9.996;2023-12-22T12:09:04;5.20;;;2.88;;
12880;SDS011;6508;53.786;9.996;2023-12-22T12:14:21;5.43;;;3.78;;
12880;SDS011;6508;53.786;9.996;2023-12-22T12:16:49;6.53;;;3.28;;
12880;SDS011;6508;53.786;9.996;2023-12-22T12:19:19;8.68;;;3.45;;
12880;SDS011;6508;53.786;9.996;2023-12-22T12:21:47;8.32;;;3.40;;
12880;SDS011;6508;53.786;9.996;2023-12-22T12:24:15;6.05;;;3.00;;
12880;SDS011;6508;53.786;9.996;2023-12-22T12:26:43;5.38;;;3.30;;
12880;SDS011;6508;53.786;9.996;2023-12-22T12:29:10;6.00;;;3.08;;
12880;SDS011;6508;53.786;9.996;2023-12-22T12:31:38;5.35;;;2.78;;
12880;SDS011;6508;53.786;9.996;2023-12-22T12:34:09;3.58;;;3.28;;
12880;SDS011;6508;53.786;9.996;2023-12-22T12:36:39;7.93;;;3.20;;
12880;SDS011;6508;53.786;9.996;2023-12-22T12:39:07;5.18;;;3.53;;
12880;SDS011;6508;53.786;9.996;2023-12-22T12:41:37;5.72;;;2.90;;
12880;SDS011;6508;53.786;9.996;2023-12-22T12:44:07;5.88;;;3.50;;
12880;SDS011;6508;53.786;9.996;2023-12-22T12:46:37;4.53;;;4.15;;
12880;SDS011;6508;53.786;9.996;2023-12-22T12:49:06;5.50;;;3.88;;
12880;SDS011;6508;53.786;9.996;2023-12-22T12:51:37;7.55;;;4.03;;
12880;SDS011;6508;53.786;9.996;2023-12-22T12:54:07;5.40;;;4.28;;
12880;SDS011;6508;53.786;9.996;2023-12-22T12:56:39;3.90;;;3.65;;
12880;SDS011;6508;53.786;9.996;2023-12-22T12:59:07;3.90;;;3.60;;
12880;SDS011;6508;53.786;9.996;2023-12-22T13:01:37;4.63;;;4.30;;
12880;SDS011;6508;53.786;9.996;2023-12-22T13:04:06;5.10;;;4.10;;
12880;SDS011;6508;53.786;9.996;2023-12-22T13:06:33;6.10;;;4.28;;
12880;SDS011;6508;53.786;9.996;2023-12-22T13:09:04;3.92;;;3.50;;
12880;SDS011;6508;53.786;9.996;2023-12-22T13:11:34;4.50;;;4.10;;
12880;SDS011;6508;53.786;9.996;2023-12-22T13:14:03;4.63;;;3.97;;
12880;SDS011;6508;53.786;9.996;2023-12-22T13:16:33;6.13;;;4.05;;
12880;SDS011;6508;53.786;9.996;2023-12-22T13:19:01;3.80;;;3.47;;
12880;SDS011;6508;53.786;9.996;2023-12-22T13:21:29;3.70;;;3.40;;
12880;SDS011;6508;53.786;9.996;2023-12-22T13:24:09;7.25;;;4.35;;
12880;SDS011;6508;53.786;9.996;2023-12-22T13:26:40;7.10;;;4.10;;
12880;SDS011;6508;53.786;9.996;2023-12-22T13:29:08;7.90;;;4.03;;
12880;SDS011;6508;53.786;9.996;2023-12-22T13:31:36;5.40;;;4.10;;
12880;SDS011;6508;53.786;9.996;2023-12-22T13:34:08;7.53;;;4.63;;
12880;SDS011;6508;53.786;9.996;2023-12-22T13:36:35;7.80;;;4.10;;
12880;SDS011;6508;53.786;9.996;2023-12-22T13:39:04;6.47;;;3.65;;
12880;SDS011;6508;53.786;9.996;2023-12-22T13:41:32;7.30;;;4.07;;
12880;SDS011;6508;53.786;9.996;2023-12-22T13:44:04;5.97;;;4.05;;
12880;SDS011;6508;53.786;9.996;2023-12-22T13:46:33;6.03;;;3.28;;
12880;SDS011;6508;53.786;9.996;2023-12-22T13:49:01;8.38;;;3.63;;
12880;SDS011;6508;53.786;9.996;2023-12-22T13:51:38;5.25;;;4.22;;
12880;SDS011;6508;53.786;9.996;2023-12-22T13:54:05;6.13;;;4.03;;
12880;SDS011;6508;53.786;9.996;2023-12-22T13:56:33;10.10;;;4.80;;
12880;SDS011;6508;53.786;9.996;2023-12-22T13:59:03;8.48;;;4.10;;
12880;SDS011;6508;53.786;9.996;2023-12-22T14:01:32;5.72;;;4.03;;
12880;SDS011;6508;53.786;9.996;2023-12-22T14:04:00;5.38;;;4.03;;
12880;SDS011;6508;53.786;9.996;2023-12-22T14:06:28;8.20;;;4.10;;
12880;SDS011;6508;53.786;9.996;2023-12-22T14:08:56;7.53;;;4.50;;
12880;SDS011;6508;53.786;9.996;2023-12-22T14:11:24;9.15;;;4.68;;
12880;SDS011;6508;53.786;9.996;2023-12-22T14:13:54;5.72;;;4.63;;
12880;SDS011;6508;53.786;9.996;2023-12-22T14:16:22;5.68;;;4.40;;
12880;SDS011;6508;53.786;9.996;2023-12-22T14:18:51;8.20;;;5.30;;
12880;SDS011;6508;53.786;9.996;2023-12-22T14:21:19;5.95;;;4.57;;
12880;SDS011;6508;53.786;9.996;2023-12-22T14:23:47;5.75;;;4.25;;
12880;SDS011;6508;53.786;9.996;2023-12-22T14:26:15;5.75;;;3.85;;
12880;SDS011;6508;53.786;9.996;2023-12-22T14:28:43;6.95;;;4.00;;
12880;SDS011;6508;53.786;9.996;2023-12-22T14:31:14;8.48;;;4.60;;
12880;SDS011;6508;53.786;9.996;2023-12-22T14:33:42;6.82;;;3.97;;
12880;SDS011;6508;53.786;9.996;2023-12-22T14:36:11;6.72;;;4.50;;
12880;SDS011;6508;53.786;9.996;2023-12-22T14:38:39;7.72;;;5.15;;
12880;SDS011;6508;53.786;9.996;2023-12-22T14:41:06;6.25;;;4.45;;
12880;SDS011;6508;53.786;9.996;2023-12-22T14:43:38;7.03;;;4.40;;
12880;SDS011;6508;53.786;9.996;2023-12-22T14:46:06;12.13;;;4.20;;
12880;SDS011;6508;53.786;9.996;2023-12-22T14:48:33;8.82;;;4.47;;
12880;SDS011;6508;53.786;9.996;2023-12-22T14:51:02;7.45;;;4.20;;
12880;SDS011;6508;53.786;9.996;2023-12-22T14:53:31;8.27;;;5.10;;
12880;SDS011;6508;53.786;9.996;2023-12-22T14:55:59;7.68;;;4.03;;
12880;SDS011;6508;53.786;9.996;2023-12-22T14:58:28;7.35;;;4.72;;
12880;SDS011;6508;53.786;9.996;2023-12-22T15:00:56;6.50;;;4.32;;
12880;SDS011;6508;53.786;9.996;2023-12-22T15:03:25;5.57;;;4.30;;
12880;SDS011;6508;53.786;9.996;2023-12-22T15:07:04;11.60;;;4.65;;
12880;SDS011;6508;53.786;9.996;2023-12-22T15:09:33;6.13;;;5.05;;
12880;SDS011;6508;53.786;9.996;2023-12-22T15:12:01;7.10;;;4.88;;
12880;SDS011;6508;53.786;9.996;2023-12-22T15:14:29;13.38;;;5.45;;
12880;SDS011;6508;53.786;9.996;2023-12-22T15:16:57;8.60;;;5.13;;
12880;SDS011;6508;53.786;9.996;2023-12-22T15:19:25;6.40;;;4.97;;